Terminal Aerodrome Forecast
Issued by NWS Memphis, TN

Home | Current Version | Previous Version | Text Only | Print | Product List | Glossary On
Versions: 1 2 3 4 5 6 7 8 9 10 11 12 13 14 15 16 17 18 19 20 21 22 23 24
000
FTUS44 KMEG 021900 AAA
TAFMKL
TAF AMD
KMKL 021939Z 0220/0318 23010KT P6SM VCTS SCT019 BKN035CB BKN200
     FM030000 VRB03KT P6SM SCT040 BKN150
     FM030600 VRB03KT 4SM BR SCT040
      TEMPO 0309/0312 1SM BR SCT005
     FM031400 19003KT P6SM BKN035=

USA.gov is the U.S. government's official web portal to all federal, state and local government web resources and services.